sensor_id;sensor_type;location;lat;lon;timestamp;P1;durP1;ratioP1;P2;durP2;ratioP2
46551;SDS011;32278;51.810;4.712;2023-05-14T00:00:40;30.02;;;19.92;;
46551;SDS011;32278;51.810;4.712;2023-05-14T00:03:06;36.70;;;20.08;;
46551;SDS011;32278;51.810;4.712;2023-05-14T00:05:32;28.60;;;17.00;;
46551;SDS011;32278;51.810;4.712;2023-05-14T00:07:58;33.38;;;18.83;;
46551;SDS011;32278;51.810;4.712;2023-05-14T00:10:24;29.67;;;18.23;;
46551;SDS011;32278;51.810;4.712;2023-05-14T00:12:50;32.03;;;18.10;;
46551;SDS011;32278;51.810;4.712;2023-05-14T00:15:16;34.22;;;19.85;;
46551;SDS011;32278;51.810;4.712;2023-05-14T00:17:43;27.83;;;17.52;;
46551;SDS011;32278;51.810;4.712;2023-05-14T00:20:09;30.00;;;18.00;;
46551;SDS011;32278;51.810;4.712;2023-05-14T00:22:36;32.38;;;19.05;;
46551;SDS011;32278;51.810;4.712;2023-05-14T00:25:02;30.73;;;18.48;;
46551;SDS011;32278;51.810;4.712;2023-05-14T00:27:29;29.38;;;18.45;;
46551;SDS011;32278;51.810;4.712;2023-05-14T00:29:55;31.48;;;18.60;;
46551;SDS011;32278;51.810;4.712;2023-05-14T00:32:22;30.23;;;17.63;;
46551;SDS011;32278;51.810;4.712;2023-05-14T00:34:47;29.88;;;17.80;;
46551;SDS011;32278;51.810;4.712;2023-05-14T00:37:13;31.25;;;17.27;;
46551;SDS011;32278;51.810;4.712;2023-05-14T00:39:39;31.00;;;17.98;;
46551;SDS011;32278;51.810;4.712;2023-05-14T00:42:05;30.73;;;17.63;;
46551;SDS011;32278;51.810;4.712;2023-05-14T00:44:32;24.58;;;15.23;;
46551;SDS011;32278;51.810;4.712;2023-05-14T00:46:58;31.30;;;17.08;;
46551;SDS011;32278;51.810;4.712;2023-05-14T00:49:24;25.80;;;16.92;;
46551;SDS011;32278;51.810;4.712;2023-05-14T00:51:51;24.73;;;16.63;;
46551;SDS011;32278;51.810;4.712;2023-05-14T00:54:17;30.50;;;18.08;;
46551;SDS011;32278;51.810;4.712;2023-05-14T00:56:44;27.58;;;18.15;;
46551;SDS011;32278;51.810;4.712;2023-05-14T00:59:11;31.30;;;18.92;;
46551;SDS011;32278;51.810;4.712;2023-05-14T01:01:38;31.27;;;16.77;;
46551;SDS011;32278;51.810;4.712;2023-05-14T01:04:04;28.95;;;18.17;;
46551;SDS011;32278;51.810;4.712;2023-05-14T01:11:35;32.60;;;16.88;;
46551;SDS011;32278;51.810;4.712;2023-05-14T01:14:14;29.30;;;17.92;;
46551;SDS011;32278;51.810;4.712;2023-05-14T01:16:41;29.45;;;17.25;;
46551;SDS011;32278;51.810;4.712;2023-05-14T01:19:09;27.92;;;16.83;;
46551;SDS011;32278;51.810;4.712;2023-05-14T01:21:38;26.02;;;17.08;;
46551;SDS011;32278;51.810;4.712;2023-05-14T01:24:05;31.70;;;18.30;;
46551;SDS011;32278;51.810;4.712;2023-05-14T01:26:31;30.60;;;17.48;;
46551;SDS011;32278;51.810;4.712;2023-05-14T01:29:00;28.60;;;16.73;;
46551;SDS011;32278;51.810;4.712;2023-05-14T01:31:26;26.65;;;17.73;;
46551;SDS011;32278;51.810;4.712;2023-05-14T01:33:55;27.10;;;17.15;;
46551;SDS011;32278;51.810;4.712;2023-05-14T01:36:24;31.52;;;17.00;;
46551;SDS011;32278;51.810;4.712;2023-05-14T01:38:50;26.77;;;16.60;;
46551;SDS011;32278;51.810;4.712;2023-05-14T01:41:16;28.08;;;16.98;;
46551;SDS011;32278;51.810;4.712;2023-05-14T01:43:43;29.92;;;17.17;;
46551;SDS011;32278;51.810;4.712;2023-05-14T01:46:09;32.22;;;18.35;;
46551;SDS011;32278;51.810;4.712;2023-05-14T01:48:35;27.15;;;16.33;;
46551;SDS011;32278;51.810;4.712;2023-05-14T01:51:02;32.20;;;16.83;;
46551;SDS011;32278;51.810;4.712;2023-05-14T01:53:28;30.45;;;17.95;;
46551;SDS011;32278;51.810;4.712;2023-05-14T01:55:54;39.72;;;18.38;;
46551;SDS011;32278;51.810;4.712;2023-05-14T01:58:20;29.70;;;17.08;;
46551;SDS011;32278;51.810;4.712;2023-05-14T02:00:46;29.17;;;18.52;;
46551;SDS011;32278;51.810;4.712;2023-05-14T02:03:12;30.55;;;18.67;;
46551;SDS011;32278;51.810;4.712;2023-05-14T02:05:38;34.45;;;18.95;;
46551;SDS011;32278;51.810;4.712;2023-05-14T02:08:03;31.08;;;18.98;;
46551;SDS011;32278;51.810;4.712;2023-05-14T02:10:29;29.92;;;19.02;;
46551;SDS011;32278;51.810;4.712;2023-05-14T02:12:55;36.58;;;20.13;;
46551;SDS011;32278;51.810;4.712;2023-05-14T02:15:21;40.53;;;19.83;;
46551;SDS011;32278;51.810;4.712;2023-05-14T02:17:47;31.33;;;18.92;;
46551;SDS011;32278;51.810;4.712;2023-05-14T02:20:13;36.72;;;19.45;;
46551;SDS011;32278;51.810;4.712;2023-05-14T02:22:39;37.75;;;18.95;;
46551;SDS011;32278;51.810;4.712;2023-05-14T02:25:10;28.88;;;17.88;;
46551;SDS011;32278;51.810;4.712;2023-05-14T02:27:36;35.03;;;18.88;;
46551;SDS011;32278;51.810;4.712;2023-05-14T02:30:02;30.50;;;18.35;;
46551;SDS011;32278;51.810;4.712;2023-05-14T02:32:28;33.88;;;19.88;;
46551;SDS011;32278;51.810;4.712;2023-05-14T02:34:55;33.78;;;20.27;;
46551;SDS011;32278;51.810;4.712;2023-05-14T02:37:21;35.28;;;19.23;;
46551;SDS011;32278;51.810;4.712;2023-05-14T02:39:46;33.63;;;18.58;;
46551;SDS011;32278;51.810;4.712;2023-05-14T02:42:13;30.02;;;18.42;;
46551;SDS011;32278;51.810;4.712;2023-05-14T02:44:39;43.58;;;20.92;;
46551;SDS011;32278;51.810;4.712;2023-05-14T02:47:08;36.30;;;20.70;;
46551;SDS011;32278;51.810;4.712;2023-05-14T02:49:34;35.38;;;20.02;;
46551;SDS011;32278;51.810;4.712;2023-05-14T02:52:00;37.80;;;19.90;;
46551;SDS011;32278;51.810;4.712;2023-05-14T02:54:26;37.35;;;21.52;;
46551;SDS011;32278;51.810;4.712;2023-05-14T02:56:52;38.78;;;22.42;;
46551;SDS011;32278;51.810;4.712;2023-05-14T02:59:18;34.47;;;21.10;;
46551;SDS011;32278;51.810;4.712;2023-05-14T03:01:44;44.55;;;23.35;;
46551;SDS011;32278;51.810;4.712;2023-05-14T03:04:09;37.50;;;20.35;;
46551;SDS011;32278;51.810;4.712;2023-05-14T03:06:35;34.22;;;20.48;;
46551;SDS011;32278;51.810;4.712;2023-05-14T03:09:01;31.80;;;18.75;;
46551;SDS011;32278;51.810;4.712;2023-05-14T03:11:28;39.05;;;20.98;;
46551;SDS011;32278;51.810;4.712;2023-05-14T03:13:54;30.15;;;18.98;;
46551;SDS011;32278;51.810;4.712;2023-05-14T03:16:20;34.75;;;18.15;;
46551;SDS011;32278;51.810;4.712;2023-05-14T03:18:46;30.65;;;18.42;;
46551;SDS011;32278;51.810;4.712;2023-05-14T03:21:12;34.40;;;18.73;;
46551;SDS011;32278;51.810;4.712;2023-05-14T03:23:38;35.58;;;18.58;;
46551;SDS011;32278;51.810;4.712;2023-05-14T03:26:04;33.10;;;18.85;;
46551;SDS011;32278;51.810;4.712;2023-05-14T03:28:30;37.35;;;20.77;;
46551;SDS011;32278;51.810;4.712;2023-05-14T03:30:56;37.10;;;20.90;;
46551;SDS011;32278;51.810;4.712;2023-05-14T03:33:22;36.55;;;20.60;;
46551;SDS011;32278;51.810;4.712;2023-05-14T03:35:48;31.75;;;19.67;;
46551;SDS011;32278;51.810;4.712;2023-05-14T03:38:14;37.90;;;21.90;;
46551;SDS011;32278;51.810;4.712;2023-05-14T03:40:40;38.65;;;19.58;;
46551;SDS011;32278;51.810;4.712;2023-05-14T03:43:06;37.75;;;20.70;;
46551;SDS011;32278;51.810;4.712;2023-05-14T03:45:32;40.28;;;21.25;;
46551;SDS011;32278;51.810;4.712;2023-05-14T03:47:58;45.58;;;22.20;;
46551;SDS011;32278;51.810;4.712;2023-05-14T03:50:24;36.92;;;21.17;;
46551;SDS011;32278;51.810;4.712;2023-05-14T03:52:50;39.20;;;21.60;;
46551;SDS011;32278;51.810;4.712;2023-05-14T03:55:18;41.45;;;21.88;;
46551;SDS011;32278;51.810;4.712;2023-05-14T03:57:44;42.05;;;22.80;;
46551;SDS011;32278;51.810;4.712;2023-05-14T04:00:10;38.45;;;22.52;;
46551;SDS011;32278;51.810;4.712;2023-05-14T04:02:36;40.42;;;21.90;;
46551;SDS011;32278;51.810;4.712;2023-05-14T04:05:02;40.70;;;21.30;;
46551;SDS011;32278;51.810;4.712;2023-05-14T04:07:28;43.05;;;21.55;;
46551;SDS011;32278;51.810;4.712;2023-05-14T04:09:54;38.60;;;21.83;;
46551;SDS011;32278;51.810;4.712;2023-05-14T04:12:20;39.35;;;23.05;;
46551;SDS011;32278;51.810;4.712;2023-05-14T04:14:46;38.63;;;22.85;;
46551;SDS011;32278;51.810;4.712;2023-05-14T04:17:12;43.90;;;23.35;;
46551;SDS011;32278;51.810;4.712;2023-05-14T04:19:38;40.28;;;22.15;;
46551;SDS011;32278;51.810;4.712;2023-05-14T04:22:04;44.90;;;22.83;;
46551;SDS011;32278;51.810;4.712;2023-05-14T04:24:30;43.03;;;23.23;;
46551;SDS011;32278;51.810;4.712;2023-05-14T04:26:56;42.33;;;22.25;;
46551;SDS011;32278;51.810;4.712;2023-05-14T04:29:22;41.08;;;22.42;;
46551;SDS011;32278;51.810;4.712;2023-05-14T04:31:48;45.38;;;24.10;;
46551;SDS011;32278;51.810;4.712;2023-05-14T04:34:14;42.00;;;22.88;;
46551;SDS011;32278;51.810;4.712;2023-05-14T04:36:40;39.90;;;23.98;;
46551;SDS011;32278;51.810;4.712;2023-05-14T04:39:06;41.70;;;22.25;;
46551;SDS011;32278;51.810;4.712;2023-05-14T04:41:36;47.10;;;23.23;;
46551;SDS011;32278;51.810;4.712;2023-05-14T04:44:02;38.00;;;21.85;;
46551;SDS011;32278;51.810;4.712;2023-05-14T04:46:28;40.90;;;24.58;;
46551;SDS011;32278;51.810;4.712;2023-05-14T04:48:55;47.28;;;24.95;;
46551;SDS011;32278;51.810;4.712;2023-05-14T04:51:21;45.35;;;24.05;;
46551;SDS011;32278;51.810;4.712;2023-05-14T04:53:47;40.80;;;22.38;;
46551;SDS011;32278;51.810;4.712;2023-05-14T04:56:13;42.42;;;22.42;;
46551;SDS011;32278;51.810;4.712;2023-05-14T04:58:39;46.00;;;22.65;;
46551;SDS011;32278;51.810;4.712;2023-05-14T05:01:07;44.13;;;23.42;;
46551;SDS011;32278;51.810;4.712;2023-05-14T05:03:33;41.67;;;22.00;;
46551;SDS011;32278;51.810;4.712;2023-05-14T05:05:59;38.05;;;21.63;;
46551;SDS011;32278;51.810;4.712;2023-05-14T05:08:25;38.90;;;22.30;;
46551;SDS011;32278;51.810;4.712;2023-05-14T05:10:51;38.60;;;22.08;;
46551;SDS011;32278;51.810;4.712;2023-05-14T05:13:17;38.08;;;22.08;;
46551;SDS011;32278;51.810;4.712;2023-05-14T05:15:43;39.05;;;21.70;;
46551;SDS011;32278;51.810;4.712;2023-05-14T05:18:09;43.33;;;22.77;;
46551;SDS011;32278;51.810;4.712;2023-05-14T05:20:35;40.95;;;22.70;;
46551;SDS011;32278;51.810;4.712;2023-05-14T05:23:01;34.35;;;20.25;;
46551;SDS011;32278;51.810;4.712;2023-05-14T05:25:27;40.13;;;20.25;;
46551;SDS011;32278;51.810;4.712;2023-05-14T05:27:53;38.65;;;20.17;;
46551;SDS011;32278;51.810;4.712;2023-05-14T05:30:21;41.97;;;21.63;;
46551;SDS011;32278;51.810;4.712;2023-05-14T05:32:47;34.95;;;20.17;;
46551;SDS011;32278;51.810;4.712;2023-05-14T05:35:13;40.97;;;20.98;;
46551;SDS011;32278;51.810;4.712;2023-05-14T05:37:39;40.67;;;22.10;;
46551;SDS011;32278;51.810;4.712;2023-05-14T05:40:05;32.25;;;18.98;;
46551;SDS011;32278;51.810;4.712;2023-05-14T05:42:33;29.98;;;18.70;;
46551;SDS011;32278;51.810;4.712;2023-05-14T05:44:59;36.83;;;18.45;;
46551;SDS011;32278;51.810;4.712;2023-05-14T05:47:25;30.10;;;19.05;;
46551;SDS011;32278;51.810;4.712;2023-05-14T05:49:51;34.83;;;20.23;;
46551;SDS011;32278;51.810;4.712;2023-05-14T05:52:18;38.00;;;20.65;;
46551;SDS011;32278;51.810;4.712;2023-05-14T05:54:44;32.22;;;18.63;;
46551;SDS011;32278;51.810;4.712;2023-05-14T05:57:09;35.03;;;18.88;;
46551;SDS011;32278;51.810;4.712;2023-05-14T05:59:35;33.85;;;19.05;;
46551;SDS011;32278;51.810;4.712;2023-05-14T06:02:01;32.83;;;18.90;;
46551;SDS011;32278;51.810;4.712;2023-05-14T06:04:27;39.60;;;19.98;;
46551;SDS011;32278;51.810;4.712;2023-05-14T06:06:53;37.83;;;18.45;;
46551;SDS011;32278;51.810;4.712;2023-05-14T06:09:19;30.23;;;17.42;;
46551;SDS011;32278;51.810;4.712;2023-05-14T06:11:45;31.52;;;19.52;;
46551;SDS011;32278;51.810;4.712;2023-05-14T06:14:11;33.97;;;17.38;;
46551;SDS011;32278;51.810;4.712;2023-05-14T06:16:37;31.95;;;18.58;;
46551;SDS011;32278;51.810;4.712;2023-05-14T06:19:03;36.70;;;20.40;;
46551;SDS011;32278;51.810;4.712;2023-05-14T06:21:30;39.30;;;19.52;;
46551;SDS011;32278;51.810;4.712;2023-05-14T06:23:56;34.17;;;20.02;;
46551;SDS011;32278;51.810;4.712;2023-05-14T06:26:22;27.80;;;18.27;;
46551;SDS011;32278;51.810;4.712;2023-05-14T06:28:48;31.95;;;19.17;;
46551;SDS011;32278;51.810;4.712;2023-05-14T06:31:14;32.25;;;18.83;;
46551;SDS011;32278;51.810;4.712;2023-05-14T06:33:40;31.38;;;18.73;;
46551;SDS011;32278;51.810;4.712;2023-05-14T06:36:06;34.88;;;20.60;;
46551;SDS011;32278;51.810;4.712;2023-05-14T06:38:32;39.53;;;21.85;;
46551;SDS011;32278;51.810;4.712;2023-05-14T06:40:58;45.08;;;24.23;;
46551;SDS011;32278;51.810;4.712;2023-05-14T06:43:24;46.25;;;24.98;;
46551;SDS011;32278;51.810;4.712;2023-05-14T06:45:50;43.83;;;24.48;;
46551;SDS011;32278;51.810;4.712;2023-05-14T06:48:17;41.90;;;23.23;;
46551;SDS011;32278;51.810;4.712;2023-05-14T06:50:43;47.90;;;26.02;;
46551;SDS011;32278;51.810;4.712;2023-05-14T06:53:09;49.45;;;25.60;;
46551;SDS011;32278;51.810;4.712;2023-05-14T06:55:35;52.25;;;26.58;;
46551;SDS011;32278;51.810;4.712;2023-05-14T06:58:01;52.15;;;27.25;;
46551;SDS011;32278;51.810;4.712;2023-05-14T07:00:28;45.58;;;24.55;;
46551;SDS011;32278;51.810;4.712;2023-05-14T07:02:54;51.90;;;26.52;;
46551;SDS011;32278;51.810;4.712;2023-05-14T07:05:20;55.45;;;26.40;;
46551;SDS011;32278;51.810;4.712;2023-05-14T07:07:46;52.22;;;26.65;;
46551;SDS011;32278;51.810;4.712;2023-05-14T07:10:13;51.03;;;25.45;;
46551;SDS011;32278;51.810;4.712;2023-05-14T07:12:39;51.08;;;25.30;;
46551;SDS011;32278;51.810;4.712;2023-05-14T07:15:05;49.80;;;25.77;;
46551;SDS011;32278;51.810;4.712;2023-05-14T07:17:33;46.47;;;25.90;;
46551;SDS011;32278;51.810;4.712;2023-05-14T07:19:59;44.53;;;24.73;;
46551;SDS011;32278;51.810;4.712;2023-05-14T07:22:25;44.13;;;24.63;;
46551;SDS011;32278;51.810;4.712;2023-05-14T07:24:51;40.28;;;23.58;;
46551;SDS011;32278;51.810;4.712;2023-05-14T07:27:17;48.72;;;25.50;;
46551;SDS011;32278;51.810;4.712;2023-05-14T07:29:43;49.55;;;25.75;;
46551;SDS011;32278;51.810;4.712;2023-05-14T07:32:08;42.55;;;23.77;;
46551;SDS011;32278;51.810;4.712;2023-05-14T07:34:35;48.88;;;24.90;;
46551;SDS011;32278;51.810;4.712;2023-05-14T07:37:00;41.83;;;24.77;;
46551;SDS011;32278;51.810;4.712;2023-05-14T07:39:26;41.40;;;23.98;;
46551;SDS011;32278;51.810;4.712;2023-05-14T07:41:52;49.33;;;23.63;;
46551;SDS011;32278;51.810;4.712;2023-05-14T07:44:19;41.97;;;23.52;;
46551;SDS011;32278;51.810;4.712;2023-05-14T07:46:45;41.75;;;24.75;;
46551;SDS011;32278;51.810;4.712;2023-05-14T07:49:13;40.95;;;24.58;;
46551;SDS011;32278;51.810;4.712;2023-05-14T07:51:39;43.92;;;24.20;;
46551;SDS011;32278;51.810;4.712;2023-05-14T07:54:05;44.17;;;24.52;;
46551;SDS011;32278;51.810;4.712;2023-05-14T07:56:31;41.88;;;24.52;;
46551;SDS011;32278;51.810;4.712;2023-05-14T07:58:57;47.38;;;24.98;;
46551;SDS011;32278;51.810;4.712;2023-05-14T08:01:23;42.97;;;23.95;;
46551;SDS011;32278;51.810;4.712;2023-05-14T08:03:50;42.10;;;24.10;;
46551;SDS011;32278;51.810;4.712;2023-05-14T08:06:16;39.95;;;21.67;;
46551;SDS011;32278;51.810;4.712;2023-05-14T08:08:42;39.47;;;22.95;;
46551;SDS011;32278;51.810;4.712;2023-05-14T08:11:08;44.00;;;24.45;;
46551;SDS011;32278;51.810;4.712;2023-05-14T08:13:34;47.00;;;25.80;;
46551;SDS011;32278;51.810;4.712;2023-05-14T08:16:00;39.67;;;25.17;;
46551;SDS011;32278;51.810;4.712;2023-05-14T08:18:26;49.28;;;23.35;;
46551;SDS011;32278;51.810;4.712;2023-05-14T08:20:52;47.20;;;26.25;;
46551;SDS011;32278;51.810;4.712;2023-05-14T08:23:18;43.33;;;25.08;;
46551;SDS011;32278;51.810;4.712;2023-05-14T08:25:44;42.67;;;25.08;;
46551;SDS011;32278;51.810;4.712;2023-05-14T08:28:10;45.05;;;23.55;;
46551;SDS011;32278;51.810;4.712;2023-05-14T08:30:36;43.90;;;25.35;;
46551;SDS011;32278;51.810;4.712;2023-05-14T08:33:02;38.33;;;22.55;;
46551;SDS011;32278;51.810;4.712;2023-05-14T08:35:28;42.10;;;25.70;;
46551;SDS011;32278;51.810;4.712;2023-05-14T08:37:54;45.10;;;24.10;;
46551;SDS011;32278;51.810;4.712;2023-05-14T08:40:21;39.70;;;24.00;;
46551;SDS011;32278;51.810;4.712;2023-05-14T08:42:47;45.08;;;23.58;;
46551;SDS011;32278;51.810;4.712;2023-05-14T08:45:19;33.95;;;21.90;;
46551;SDS011;32278;51.810;4.712;2023-05-14T08:47:46;34.13;;;23.20;;
46551;SDS011;32278;51.810;4.712;2023-05-14T08:50:14;37.35;;;21.95;;
46551;SDS011;32278;51.810;4.712;2023-05-14T08:52:40;38.47;;;21.50;;
46551;SDS011;32278;51.810;4.712;2023-05-14T08:55:06;38.65;;;22.45;;
46551;SDS011;32278;51.810;4.712;2023-05-14T08:57:33;33.00;;;21.05;;
46551;SDS011;32278;51.810;4.712;2023-05-14T09:00:00;33.38;;;20.60;;
46551;SDS011;32278;51.810;4.712;2023-05-14T09:02:29;35.50;;;20.45;;
46551;SDS011;32278;51.810;4.712;2023-05-14T09:04:56;37.55;;;21.50;;
46551;SDS011;32278;51.810;4.712;2023-05-14T09:07:22;33.75;;;20.30;;
46551;SDS011;32278;51.810;4.712;2023-05-14T09:09:48;33.00;;;20.58;;
46551;SDS011;32278;51.810;4.712;2023-05-14T09:12:14;33.83;;;20.40;;
46551;SDS011;32278;51.810;4.712;2023-05-14T09:14:40;32.60;;;20.10;;
46551;SDS011;32278;51.810;4.712;2023-05-14T09:17:06;32.88;;;20.55;;
46551;SDS011;32278;51.810;4.712;2023-05-14T09:19:33;30.83;;;19.27;;
46551;SDS011;32278;51.810;4.712;2023-05-14T09:21:59;31.08;;;19.35;;
46551;SDS011;32278;51.810;4.712;2023-05-14T09:24:25;26.27;;;17.73;;
46551;SDS011;32278;51.810;4.712;2023-05-14T09:26:54;25.17;;;16.90;;
46551;SDS011;32278;51.810;4.712;2023-05-14T09:29:22;30.23;;;17.25;;
46551;SDS011;32278;51.810;4.712;2023-05-14T09:31:49;28.77;;;18.08;;
46551;SDS011;32278;51.810;4.712;2023-05-14T09:34:25;25.15;;;17.17;;
46551;SDS011;32278;51.810;4.712;2023-05-14T09:36:58;22.20;;;14.68;;
46551;SDS011;32278;51.810;4.712;2023-05-14T09:39:25;32.40;;;17.00;;
46551;SDS011;32278;51.810;4.712;2023-05-14T09:41:51;21.85;;;15.07;;
46551;SDS011;32278;51.810;4.712;2023-05-14T09:44:18;26.30;;;16.65;;
46551;SDS011;32278;51.810;4.712;2023-05-14T09:46:44;29.38;;;17.60;;
46551;SDS011;32278;51.810;4.712;2023-05-14T09:49:10;25.80;;;17.45;;
46551;SDS011;32278;51.810;4.712;2023-05-14T09:51:36;25.48;;;16.65;;
46551;SDS011;32278;51.810;4.712;2023-05-14T09:54:03;21.90;;;16.05;;
46551;SDS011;32278;51.810;4.712;2023-05-14T09:56:29;30.42;;;18.45;;
46551;SDS011;32278;51.810;4.712;2023-05-14T09:58:55;25.98;;;17.50;;
46551;SDS011;32278;51.810;4.712;2023-05-14T10:01:21;27.85;;;17.02;;
46551;SDS011;32278;51.810;4.712;2023-05-14T10:03:48;25.13;;;17.08;;
46551;SDS011;32278;51.810;4.712;2023-05-14T10:06:15;23.00;;;16.02;;
46551;SDS011;32278;51.810;4.712;2023-05-14T10:08:42;24.98;;;15.50;;
46551;SDS011;32278;51.810;4.712;2023-05-14T10:11:12;25.80;;;14.98;;
46551;SDS011;32278;51.810;4.712;2023-05-14T10:13:39;22.60;;;14.48;;
46551;SDS011;32278;51.810;4.712;2023-05-14T10:16:15;25.08;;;15.10;;
46551;SDS011;32278;51.810;4.712;2023-05-14T10:18:45;23.20;;;16.05;;
46551;SDS011;32278;51.810;4.712;2023-05-14T10:21:13;20.75;;;14.63;;
46551;SDS011;32278;51.810;4.712;2023-05-14T10:23:39;23.30;;;14.70;;
46551;SDS011;32278;51.810;4.712;2023-05-14T10:26:05;25.08;;;14.60;;
46551;SDS011;32278;51.810;4.712;2023-05-14T10:28:33;25.08;;;15.98;;
46551;SDS011;32278;51.810;4.712;2023-05-14T10:30:59;21.40;;;13.82;;
46551;SDS011;32278;51.810;4.712;2023-05-14T10:33:25;18.88;;;13.43;;
46551;SDS011;32278;51.810;4.712;2023-05-14T10:35:55;23.17;;;12.98;;
46551;SDS011;32278;51.810;4.712;2023-05-14T10:38:23;19.15;;;12.15;;
46551;SDS011;32278;51.810;4.712;2023-05-14T10:40:53;22.83;;;14.70;;
46551;SDS011;32278;51.810;4.712;2023-05-14T10:43:19;16.20;;;11.80;;
46551;SDS011;32278;51.810;4.712;2023-05-14T10:45:45;22.52;;;11.85;;
46551;SDS011;32278;51.810;4.712;2023-05-14T10:48:11;25.33;;;12.57;;
46551;SDS011;32278;51.810;4.712;2023-05-14T10:50:38;15.68;;;11.52;;
46551;SDS011;32278;51.810;4.712;2023-05-14T10:53:04;18.10;;;11.48;;
46551;SDS011;32278;51.810;4.712;2023-05-14T10:55:30;14.80;;;10.23;;
46551;SDS011;32278;51.810;4.712;2023-05-14T10:57:57;18.55;;;10.50;;
46551;SDS011;32278;51.810;4.712;2023-05-14T11:00:25;19.08;;;11.25;;
46551;SDS011;32278;51.810;4.712;2023-05-14T11:02:51;16.00;;;10.00;;
46551;SDS011;32278;51.810;4.712;2023-05-14T11:05:19;18.30;;;11.32;;
46551;SDS011;32278;51.810;4.712;2023-05-14T11:07:46;15.25;;;11.05;;
46551;SDS011;32278;51.810;4.712;2023-05-14T11:10:15;17.25;;;10.82;;
46551;SDS011;32278;51.810;4.712;2023-05-14T11:12:42;16.48;;;11.00;;
46551;SDS011;32278;51.810;4.712;2023-05-14T11:15:09;17.75;;;11.50;;
46551;SDS011;32278;51.810;4.712;2023-05-14T11:17:36;18.75;;;10.60;;
46551;SDS011;32278;51.810;4.712;2023-05-14T11:20:02;17.38;;;10.75;;
46551;SDS011;32278;51.810;4.712;2023-05-14T11:22:30;18.00;;;11.90;;
46551;SDS011;32278;51.810;4.712;2023-05-14T11:24:56;13.40;;;10.38;;
46551;SDS011;32278;51.810;4.712;2023-05-14T11:27:22;16.13;;;10.55;;
46551;SDS011;32278;51.810;4.712;2023-05-14T11:29:48;17.25;;;10.68;;
46551;SDS011;32278;51.810;4.712;2023-05-14T11:32:14;14.38;;;10.10;;
46551;SDS011;32278;51.810;4.712;2023-05-14T11:34:41;18.50;;;11.80;;
46551;SDS011;32278;51.810;4.712;2023-05-14T11:37:09;15.90;;;11.07;;
46551;SDS011;32278;51.810;4.712;2023-05-14T11:39:36;17.50;;;11.30;;
46551;SDS011;32278;51.810;4.712;2023-05-14T11:42:11;16.35;;;9.68;;
46551;SDS011;32278;51.810;4.712;2023-05-14T11:44:38;14.82;;;10.55;;
46551;SDS011;32278;51.810;4.712;2023-05-14T11:47:05;15.30;;;9.68;;
46551;SDS011;32278;51.810;4.712;2023-05-14T11:49:31;29.98;;;26.98;;
46551;SDS011;32278;51.810;4.712;2023-05-14T11:52:00;16.33;;;9.63;;
46551;SDS011;32278;51.810;4.712;2023-05-14T11:54:27;19.65;;;10.77;;
46551;SDS011;32278;51.810;4.712;2023-05-14T11:56:53;16.98;;;10.13;;
46551;SDS011;32278;51.810;4.712;2023-05-14T11:59:20;12.70;;;9.63;;
46551;SDS011;32278;51.810;4.712;2023-05-14T12:01:46;19.17;;;11.75;;
46551;SDS011;32278;51.810;4.712;2023-05-14T12:04:13;15.75;;;9.82;;
46551;SDS011;32278;51.810;4.712;2023-05-14T12:06:39;17.23;;;9.30;;
46551;SDS011;32278;51.810;4.712;2023-05-14T12:09:05;15.63;;;9.63;;
46551;SDS011;32278;51.810;4.712;2023-05-14T12:11:31;13.82;;;9.77;;
46551;SDS011;32278;51.810;4.712;2023-05-14T12:13:58;16.85;;;9.25;;
46551;SDS011;32278;51.810;4.712;2023-05-14T12:16:28;13.90;;;9.23;;
46551;SDS011;32278;51.810;4.712;2023-05-14T12:18:58;15.00;;;8.47;;
46551;SDS011;32278;51.810;4.712;2023-05-14T12:21:25;11.55;;;7.30;;
46551;SDS011;32278;51.810;4.712;2023-05-14T12:23:55;16.63;;;9.05;;
46551;SDS011;32278;51.810;4.712;2023-05-14T12:26:21;14.32;;;9.68;;
46551;SDS011;32278;51.810;4.712;2023-05-14T12:28:47;15.43;;;9.32;;
46551;SDS011;32278;51.810;4.712;2023-05-14T12:31:14;15.13;;;7.30;;
46551;SDS011;32278;51.810;4.712;2023-05-14T12:33:40;16.27;;;6.97;;
46551;SDS011;32278;51.810;4.712;2023-05-14T12:36:06;11.02;;;7.75;;
46551;SDS011;32278;51.810;4.712;2023-05-14T12:38:32;11.88;;;7.80;;
46551;SDS011;32278;51.810;4.712;2023-05-14T12:40:58;21.83;;;8.95;;
46551;SDS011;32278;51.810;4.712;2023-05-14T12:43:24;19.38;;;8.18;;
46551;SDS011;32278;51.810;4.712;2023-05-14T12:45:55;15.48;;;9.23;;
46551;SDS011;32278;51.810;4.712;2023-05-14T12:48:21;11.32;;;8.18;;
46551;SDS011;32278;51.810;4.712;2023-05-14T12:50:47;13.35;;;7.85;;
46551;SDS011;32278;51.810;4.712;2023-05-14T12:53:13;14.98;;;9.00;;
46551;SDS011;32278;51.810;4.712;2023-05-14T12:55:40;15.60;;;9.48;;
46551;SDS011;32278;51.810;4.712;2023-05-14T12:58:06;13.55;;;8.98;;
46551;SDS011;32278;51.810;4.712;2023-05-14T13:00:32;15.27;;;8.07;;
46551;SDS011;32278;51.810;4.712;2023-05-14T13:02:58;16.02;;;8.57;;
46551;SDS011;32278;51.810;4.712;2023-05-14T13:05:24;17.60;;;8.50;;
46551;SDS011;32278;51.810;4.712;2023-05-14T13:07:51;15.07;;;9.10;;
46551;SDS011;32278;51.810;4.712;2023-05-14T13:10:17;24.23;;;9.38;;
46551;SDS011;32278;51.810;4.712;2023-05-14T13:12:43;15.70;;;9.57;;
46551;SDS011;32278;51.810;4.712;2023-05-14T13:15:09;16.63;;;9.98;;
46551;SDS011;32278;51.810;4.712;2023-05-14T13:17:35;16.10;;;9.52;;
46551;SDS011;32278;51.810;4.712;2023-05-14T13:20:01;16.98;;;9.15;;
46551;SDS011;32278;51.810;4.712;2023-05-14T13:22:28;15.27;;;8.65;;
46551;SDS011;32278;51.810;4.712;2023-05-14T13:24:54;15.07;;;8.18;;
46551;SDS011;32278;51.810;4.712;2023-05-14T13:27:20;15.93;;;8.88;;
46551;SDS011;32278;51.810;4.712;2023-05-14T13:29:46;18.35;;;9.38;;
46551;SDS011;32278;51.810;4.712;2023-05-14T13:32:12;17.00;;;9.32;;
46551;SDS011;32278;51.810;4.712;2023-05-14T13:34:38;19.33;;;9.35;;
46551;SDS011;32278;51.810;4.712;2023-05-14T13:37:04;17.88;;;9.52;;
46551;SDS011;32278;51.810;4.712;2023-05-14T13:39:30;13.93;;;8.20;;
46551;SDS011;32278;51.810;4.712;2023-05-14T13:41:56;16.23;;;9.73;;
46551;SDS011;32278;51.810;4.712;2023-05-14T13:44:22;13.30;;;8.32;;
46551;SDS011;32278;51.810;4.712;2023-05-14T13:46:48;13.35;;;9.70;;
46551;SDS011;32278;51.810;4.712;2023-05-14T13:49:14;14.25;;;9.48;;
46551;SDS011;32278;51.810;4.712;2023-05-14T13:51:40;16.10;;;8.75;;
46551;SDS011;32278;51.810;4.712;2023-05-14T13:54:06;19.00;;;9.90;;
46551;SDS011;32278;51.810;4.712;2023-05-14T13:56:32;15.40;;;8.82;;
46551;SDS011;32278;51.810;4.712;2023-05-14T13:58:58;16.02;;;8.45;;
46551;SDS011;32278;51.810;4.712;2023-05-14T14:01:24;17.70;;;8.60;;
46551;SDS011;32278;51.810;4.712;2023-05-14T14:03:50;14.18;;;7.18;;
46551;SDS011;32278;51.810;4.712;2023-05-14T14:06:16;14.55;;;8.20;;
46551;SDS011;32278;51.810;4.712;2023-05-14T14:08:42;19.02;;;8.80;;
46551;SDS011;32278;51.810;4.712;2023-05-14T14:11:08;19.48;;;8.77;;
46551;SDS011;32278;51.810;4.712;2023-05-14T14:13:35;21.95;;;9.10;;
46551;SDS011;32278;51.810;4.712;2023-05-14T14:16:01;15.57;;;8.18;;
46551;SDS011;32278;51.810;4.712;2023-05-14T14:18:28;11.93;;;7.30;;
46551;SDS011;32278;51.810;4.712;2023-05-14T14:20:54;16.42;;;8.93;;
46551;SDS011;32278;51.810;4.712;2023-05-14T14:23:20;14.27;;;8.10;;